createdAt,value
2023-04-02T00:02:29.526Z,97295.97
2023-04-02T00:05:35.836Z,97297.53
2023-04-02T00:08:10.539Z,97290.31
2023-04-02T00:10:50.864Z,97304.97
2023-04-02T00:13:27.736Z,97305.34
2023-04-02T00:15:59.838Z,97293.22
2023-04-02T00:18:31.273Z,97297.44
2023-04-02T00:21:11.536Z,97299.22
2023-04-02T00:23:45.446Z,97298.03
2023-04-02T00:26:37.070Z,97301.53
2023-04-02T00:29:09.125Z,97306.59
2023-04-02T00:31:44.300Z,97308.56
2023-04-02T00:34:21.595Z,97301.53
2023-04-02T00:36:52.703Z,97310.47
2023-04-02T00:39:27.801Z,97308.31
2023-04-02T00:42:07.630Z,97307.69
2023-04-02T00:44:42.972Z,97303.97
2023-04-02T00:47:19.036Z,97305.34
2023-04-02T00:49:50.394Z,97307.13
2023-04-02T00:52:24.076Z,97305.75
2023-04-02T00:55:03.151Z,97305.41
2023-04-02T00:57:37.028Z,97303.09
2023-04-02T01:00:26.169Z,97300.41
2023-04-02T01:03:29.171Z,97308.19
2023-04-02T01:06:11.217Z,97312.72
2023-04-02T01:08:56.835Z,97309.97
2023-04-02T01:11:39.891Z,97315.81
2023-04-02T01:14:23.498Z,97316.81
2023-04-02T01:17:00.647Z,97315.03
2023-04-02T01:19:53.013Z,97312.09
2023-04-02T01:22:30.943Z,97321.50
2023-04-02T01:25:02.264Z,97325.81
2023-04-02T01:27:37.893Z,97323.47
2023-04-02T01:30:14.714Z,97327.78
2023-04-02T01:32:46.436Z,97330.50
2023-04-02T01:35:17.452Z,97323.28
2023-04-02T01:37:56.773Z,97332.88
2023-04-02T01:40:37.320Z,97327.00
2023-04-02T01:43:19.104Z,97334.63
2023-04-02T01:45:53.052Z,97333.63
2023-04-02T01:48:27.716Z,97340.63
2023-04-02T01:51:00.944Z,97345.34
2023-04-02T01:53:33.484Z,97341.47
2023-04-02T01:56:05.232Z,97345.75
2023-04-02T01:58:36.734Z,97344.59
2023-04-02T02:01:17.660Z,97348.69
2023-04-02T02:03:48.560Z,97348.69
2023-04-02T02:06:22.159Z,97348.31
2023-04-02T02:08:57.710Z,97350.47
2023-04-02T02:11:32.417Z,97353.97
2023-04-02T02:14:04.674Z,97353.53
2023-04-02T02:16:42.301Z,97357.50
2023-04-02T02:19:23.091Z,97372.75
2023-04-02T02:21:56.136Z,97364.16
2023-04-02T02:24:28.455Z,97365.31
2023-04-02T02:27:13.460Z,97370.03
2023-04-02T02:29:46.069Z,97371.56
2023-04-02T02:32:21.004Z,97378.97
2023-04-02T02:34:56.592Z,97377.34
2023-04-02T02:37:32.315Z,97377.25
2023-04-02T02:40:07.039Z,97374.59
2023-04-02T02:42:41.938Z,97377.31
2023-04-02T02:45:19.551Z,97381.22
2023-04-02T02:47:53.910Z,97382.56
2023-04-02T02:50:28.641Z,97385.13
2023-04-02T02:53:02.209Z,97384.75
2023-04-02T02:55:38.197Z,97384.56
2023-04-02T02:58:23.718Z,97385.19
2023-04-02T03:01:08.502Z,97385.19
2023-04-02T03:03:45.068Z,97391.22
2023-04-02T03:06:20.921Z,97394.50
2023-04-02T03:09:03.984Z,97397.63
2023-04-02T03:11:43.195Z,97392.34
2023-04-02T03:14:24.277Z,97399.94
2023-04-02T03:17:03.551Z,97411.28
2023-04-02T03:19:44.881Z,97402.25
2023-04-02T03:22:19.798Z,97417.53
2023-04-02T03:24:59.319Z,97408.47
2023-04-02T03:27:34.941Z,97417.53
2023-04-02T03:30:23.535Z,97423.38
2023-04-02T03:33:00.919Z,97426.72
2023-04-02T03:35:39.181Z,97428.06
2023-04-02T03:38:16.590Z,97426.53
2023-04-02T03:40:58.938Z,97430.69
2023-04-02T03:43:31.817Z,97436.13
2023-04-02T03:46:14.632Z,97439.25
2023-04-02T03:48:49.496Z,97440.81
2023-04-02T03:51:27.936Z,97443.38
2023-04-02T03:53:59.448Z,97437.09
2023-04-02T03:56:34.464Z,97446.84
2023-04-02T03:59:14.896Z,97444.91
2023-04-02T04:01:51.370Z,97445.53
2023-04-02T04:04:23.016Z,97448.44
2023-04-02T04:06:59.028Z,97451.91
2023-04-02T04:09:33.881Z,97460.06
2023-04-02T04:12:17.892Z,97449.97
2023-04-02T04:14:53.712Z,97457.00
2023-04-02T04:17:30.362Z,97456.00
2023-04-02T04:20:10.822Z,97456.97
2023-04-02T04:22:43.752Z,97456.56
2023-04-02T04:25:29.903Z,97467.34
2023-04-02T04:28:12.132Z,97464.59
2023-04-02T04:30:52.883Z,97467.28
2023-04-02T04:33:29.262Z,97469.81
2023-04-02T04:36:06.652Z,97476.47
2023-04-02T04:38:44.380Z,97480.53
2023-04-02T04:41:23.087Z,97483.88
2023-04-02T04:44:01.416Z,97484.63
2023-04-02T04:46:35.974Z,97490.50
2023-04-02T04:49:14.184Z,97495.03
2023-04-02T04:51:49.886Z,97497.19
2023-04-02T04:54:23.142Z,97501.47
2023-04-02T04:56:59.984Z,97496.78
2023-04-02T04:59:35.092Z,97508.72
2023-04-02T05:02:10.770Z,97508.56
2023-04-02T05:04:43.847Z,97511.34
2023-04-02T05:07:23.183Z,97509.38
2023-04-02T05:10:02.452Z,97512.53
2023-04-02T05:12:43.446Z,97515.28
2023-04-02T05:15:23.109Z,97516.06
2023-04-02T05:17:58.730Z,97521.13
2023-04-02T05:20:37.954Z,97524.25
2023-04-02T05:23:18.160Z,97520.38
2023-04-02T05:26:07.296Z,97521.19
2023-04-02T05:28:45.905Z,97533.44
2023-04-02T05:31:21.755Z,97537.72
2023-04-02T05:33:53.158Z,97534.03
2023-04-02T05:36:26.945Z,97542.19
2023-04-02T05:39:02.369Z,97542.59
2023-04-02T05:41:48.007Z,97538.97
2023-04-02T05:44:38.580Z,97545.38
2023-04-02T05:47:15.514Z,97553.63
2023-04-02T05:49:50.597Z,97556.38
2023-04-02T05:52:26.460Z,97557.94
2023-04-02T05:55:02.257Z,97562.59
2023-04-02T05:57:45.846Z,97566.94
2023-04-02T06:00:29.565Z,97569.28
2023-04-02T06:03:07.662Z,97569.69
2023-04-02T06:05:44.940Z,97574.88
2023-04-02T06:08:20.486Z,97569.88
2023-04-02T06:10:55.550Z,97574.59
2023-04-02T06:13:31.982Z,97586.34
2023-04-02T06:16:03.312Z,97582.03
2023-04-02T06:18:39.014Z,97587.91
2023-04-02T06:21:09.839Z,97591.81
2023-04-02T06:23:46.828Z,97592.63
2023-04-02T06:26:22.576Z,97603.00
2023-04-02T06:29:02.717Z,97606.31
2023-04-02T06:31:38.796Z,97599.69
2023-04-02T06:34:19.072Z,97602.63
2023-04-02T06:37:02.755Z,97611.63
2023-04-02T06:39:34.700Z,97616.66
2023-04-02T06:42:16.152Z,97617.97
2023-04-02T06:45:27.124Z,97618.78
2023-04-02T06:48:21.145Z,97632.84
2023-04-02T06:51:03.980Z,97636.34
2023-04-02T06:53:37.768Z,97636.34
2023-04-02T06:56:16.101Z,97639.88
2023-04-02T06:58:46.682Z,97644.53
2023-04-02T07:01:24.981Z,97652.81
2023-04-02T07:03:55.430Z,97657.00
2023-04-02T07:06:39.420Z,97659.78
2023-04-02T07:09:09.856Z,97665.28
2023-04-02T07:11:43.412Z,97670.66
2023-04-02T07:14:14.972Z,97670.91
2023-04-02T07:16:47.991Z,97678.91
2023-04-02T07:19:22.512Z,97680.13
2023-04-02T07:21:57.181Z,97678.44
2023-04-02T07:24:30.572Z,97684.53
2023-04-02T07:27:00.668Z,97691.81
2023-04-02T07:29:30.615Z,97693.03
2023-04-02T07:32:03.519Z,97701.66
2023-04-02T07:34:33.508Z,97700.88
2023-04-02T07:37:04.324Z,97704.44
2023-04-02T07:39:36.812Z,97708.78
2023-04-02T07:42:08.295Z,97717.59
2023-04-02T07:44:38.249Z,97714.69
2023-04-02T07:47:11.708Z,97717.03
2023-04-02T07:49:42.294Z,97721.53
2023-04-02T07:52:13.047Z,97722.84
2023-04-02T07:54:44.078Z,97726.31
2023-04-02T07:57:14.286Z,97734.50
2023-04-02T07:59:44.625Z,97736.88
2023-04-02T08:02:24.797Z,97742.47
2023-04-02T08:04:55.892Z,97748.13
2023-04-02T08:07:30.888Z,97754.38
2023-04-02T08:10:02.206Z,97752.78
2023-04-02T08:12:32.945Z,97756.34
2023-04-02T08:15:03.282Z,97755.47
2023-04-02T08:17:36.549Z,97755.38
2023-04-02T08:20:10.647Z,97757.44
2023-04-02T08:22:41.206Z,97765.16
2023-04-02T08:25:13.239Z,97763.19
2023-04-02T08:27:44.064Z,97765.56
2023-04-02T08:30:16.657Z,97770.97
2023-04-02T08:32:49.443Z,97767.50
2023-04-02T08:35:20.385Z,97775.13
2023-04-02T08:37:50.711Z,97782.09
2023-04-02T08:40:26.415Z,97783.59
2023-04-02T08:43:23.564Z,97785.06
2023-04-02T08:46:05.314Z,97797.22
2023-04-02T08:48:43.683Z,97789.69
2023-04-02T08:51:25.711Z,97790.31
2023-04-02T08:53:58.776Z,97793.59
2023-04-02T08:56:35.353Z,97800.78
2023-04-02T08:59:14.133Z,97803.25
2023-04-02T09:01:55.802Z,97807.25
2023-04-02T09:04:29.506Z,97813.72
2023-04-02T09:07:03.340Z,97815.72
2023-04-02T09:09:41.677Z,97817.28
2023-04-02T09:12:22.168Z,97820.41
2023-04-02T09:15:05.845Z,97816.09
2023-04-02T09:17:50.407Z,97815.94
2023-04-02T09:20:29.518Z,97820.16
2023-04-02T09:23:03.876Z,97832.41
2023-04-02T09:25:34.915Z,97831.97
2023-04-02T09:28:07.836Z,97835.03
2023-04-02T09:30:54.086Z,97832.81
2023-04-02T09:33:44.253Z,97837.31
2023-04-02T09:36:41.979Z,97845.38
2023-04-02T09:39:20.687Z,97858.41
2023-04-02T09:42:02.789Z,97854.22
2023-04-02T09:44:35.870Z,97863.59
2023-04-02T09:47:09.752Z,97866.31
2023-04-02T09:49:41.644Z,97863.22
2023-04-02T09:52:23.517Z,97868.06
2023-04-02T09:55:20.740Z,97863.88
2023-04-02T09:57:53.582Z,97874.84
2023-04-02T10:00:32.043Z,97880.13
2023-04-02T10:03:06.510Z,97879.69
2023-04-02T10:05:41.166Z,97872.44
2023-04-02T10:08:22.563Z,97878.22
2023-04-02T10:10:57.443Z,97882.13
2023-04-02T10:13:31.975Z,97885.16
2023-04-02T10:16:06.900Z,97886.59
2023-04-02T10:18:44.402Z,97889.00
2023-04-02T10:21:18.566Z,97891.47
2023-04-02T10:23:51.675Z,97899.59
2023-04-02T10:26:44.419Z,97895.47
2023-04-02T10:29:26.453Z,97892.00
2023-04-02T10:32:04.234Z,97898.75
2023-04-02T10:34:43.167Z,97900.94
2023-04-02T10:37:44.164Z,97908.47
2023-04-02T10:40:22.435Z,97906.63
2023-04-02T10:43:12.714Z,97906.91
2023-04-02T10:45:49.296Z,97910.03
2023-04-02T10:48:27.553Z,97913.59
2023-04-02T10:51:03.517Z,97916.94
2023-04-02T10:53:40.265Z,97917.72
2023-04-02T10:56:16.089Z,97915.78
2023-04-02T10:58:56.164Z,97931.22
2023-04-02T11:01:31.131Z,97927.41
2023-04-02T11:04:06.559Z,97928.75
2023-04-02T11:06:48.273Z,97935.00
2023-04-02T11:09:23.526Z,97931.09
2023-04-02T11:11:59.657Z,97940.78
2023-04-02T11:14:31.795Z,97942.94
2023-04-02T11:17:04.735Z,97942.47
2023-04-02T11:19:36.402Z,97938.00
2023-04-02T11:22:08.564Z,97946.13
2023-04-02T11:24:45.688Z,97953.84
2023-04-02T11:27:34.631Z,97949.03
2023-04-02T11:30:24.566Z,97947.13
2023-04-02T11:32:56.536Z,97960.72
2023-04-02T11:35:42.483Z,97958.69
2023-04-02T11:38:48.163Z,97957.53
2023-04-02T11:41:53.134Z,97958.28
2023-04-02T11:44:31.949Z,97959.81
2023-04-02T11:47:19.084Z,97960.63
2023-04-02T11:50:04.381Z,97964.47
2023-04-02T11:52:39.642Z,97967.56
2023-04-02T11:55:27.555Z,97968.88
2023-04-02T11:58:09.148Z,97970.44
2023-04-02T12:01:09.526Z,97976.31
2023-04-02T12:04:11.942Z,97975.16
2023-04-02T12:06:55.651Z,97977.03
2023-04-02T12:09:27.832Z,97977.50
2023-04-02T12:12:01.474Z,97977.28
2023-04-02T12:14:44.083Z,97982.22
2023-04-02T12:17:23.286Z,97978.50
2023-04-02T12:19:58.810Z,97983.47
2023-04-02T12:22:31.600Z,97992.84
2023-04-02T12:25:04.674Z,97991.78
2023-04-02T12:27:38.572Z,97993.72
2023-04-02T12:30:19.982Z,97996.88
2023-04-02T12:32:51.179Z,98002.56
2023-04-02T12:35:34.546Z,98000.84
2023-04-02T12:38:05.067Z,98005.34
2023-04-02T12:40:35.420Z,98000.88
2023-04-02T12:43:05.751Z,98006.03
2023-04-02T12:45:37.285Z,98008.53
2023-04-02T12:48:09.622Z,98008.66
2023-04-02T12:50:43.760Z,98010.88
2023-04-02T12:53:23.225Z,98013.22
2023-04-02T12:55:55.131Z,98009.22
2023-04-02T12:58:32.144Z,98023.44
2023-04-02T13:01:21.640Z,98017.44
2023-04-02T13:04:06.376Z,98012.81
2023-04-02T13:06:39.587Z,98013.28
2023-04-02T13:09:29.150Z,98015.22
2023-04-02T13:11:59.630Z,98012.09
2023-04-02T13:14:31.104Z,98021.00
2023-04-02T13:17:03.588Z,98022.78
2023-04-02T13:19:35.896Z,98020.81
2023-04-02T13:22:33.482Z,98027.78
2023-04-02T13:25:03.694Z,98026.50
2023-04-02T13:27:33.897Z,98022.22
2023-04-02T13:30:11.146Z,98028.19
2023-04-02T13:32:41.463Z,98025.84
2023-04-02T13:35:12.299Z,98028.00
2023-04-02T13:37:45.169Z,98034.06
2023-04-02T13:40:17.501Z,98031.94
2023-04-02T13:42:49.471Z,98033.16
2023-04-02T13:45:27.467Z,98032.72
2023-04-02T13:48:01.145Z,98035.94
2023-04-02T13:50:37.020Z,98036.34
2023-04-02T13:53:16.393Z,98039.28
2023-04-02T13:55:47.161Z,98044.97
2023-04-02T13:58:17.212Z,98042.38
2023-04-02T14:00:47.694Z,98050.00
2023-04-02T14:03:23.085Z,98048.22
2023-04-02T14:06:01.245Z,98043.63
2023-04-02T14:08:47.598Z,98054.97
2023-04-02T14:11:31.531Z,98058.13
2023-04-02T14:14:20.288Z,98064.19
2023-04-02T14:17:06.525Z,98064.59
2023-04-02T14:19:53.041Z,98078.50
2023-04-02T14:22:33.211Z,98077.31
2023-04-02T14:25:15.990Z,98076.66
2023-04-02T14:27:55.261Z,98083.13
2023-04-02T14:30:35.046Z,98088.03
2023-04-02T14:33:12.882Z,98088.28
2023-04-02T14:35:48.542Z,98092.13
2023-04-02T14:38:25.524Z,98101.50
2023-04-02T14:41:03.823Z,98104.69
2023-04-02T14:43:40.886Z,98094.91
2023-04-02T14:46:13.116Z,98097.50
2023-04-02T14:48:54.785Z,98098.53
2023-04-02T14:51:31.631Z,98101.06
2023-04-02T14:54:12.231Z,98106.97
2023-04-02T14:56:52.758Z,98103.25
2023-04-02T14:59:31.720Z,98113.34
2023-04-02T15:02:06.186Z,98113.06
2023-04-02T15:04:39.741Z,98113.22
2023-04-02T15:07:22.262Z,98117.06
2023-04-02T15:09:57.872Z,98112.78
2023-04-02T15:12:36.299Z,98120.19
2023-04-02T15:15:22.209Z,98122.72
2023-04-02T15:17:57.643Z,98130.34
2023-04-02T15:20:29.131Z,98132.22
2023-04-02T15:23:06.682Z,98137.16
2023-04-02T15:25:44.505Z,98140.88
2023-04-02T15:28:28.108Z,98146.38
2023-04-02T15:31:01.176Z,98151.78
2023-04-02T15:33:44.133Z,98158.16
2023-04-02T15:36:48.665Z,98156.97
2023-04-02T15:39:38.971Z,98164.72
2023-04-02T15:42:20.063Z,98170.81
2023-04-02T15:45:16.528Z,98173.91
2023-04-02T15:47:56.195Z,98175.16
2023-04-02T15:50:45.389Z,98176.09
2023-04-02T15:53:34.024Z,98186.56
2023-04-02T15:56:12.920Z,98192.84
2023-04-02T15:58:58.439Z,98193.56
2023-04-02T16:01:43.689Z,98205.31
2023-04-02T16:04:26.294Z,98208.66
2023-04-02T16:07:11.710Z,98205.06
2023-04-02T16:09:51.168Z,98206.34
2023-04-02T16:12:29.427Z,98225.97
2023-04-02T16:15:06.256Z,98218.00
2023-04-02T16:17:42.540Z,98216.34
2023-04-02T16:20:24.665Z,98217.66
2023-04-02T16:23:02.924Z,98224.25
2023-04-02T16:25:42.466Z,98235.19
2023-04-02T16:28:22.578Z,98241.63
2023-04-02T16:31:01.820Z,98232.81
2023-04-02T16:33:55.184Z,98241.38
2023-04-02T16:36:33.625Z,98250.06
2023-04-02T16:39:10.730Z,98261.25
2023-04-02T16:41:57.180Z,98260.91
2023-04-02T16:44:36.457Z,98264.34
2023-04-02T16:47:23.688Z,98276.53
2023-04-02T16:50:06.931Z,98270.53
2023-04-02T16:52:45.937Z,98282.63
2023-04-02T16:55:29.356Z,98278.25
2023-04-02T16:58:11.737Z,98286.78
2023-04-02T17:00:47.767Z,98287.66
2023-04-02T17:03:53.214Z,98292.50
2023-04-02T17:06:38.322Z,98289.09
2023-04-02T17:09:18.164Z,98294.84
2023-04-02T17:11:52.725Z,98307.41
2023-04-02T17:14:35.210Z,98302.19
2023-04-02T17:17:07.797Z,98307.63
2023-04-02T17:19:38.244Z,98301.31
2023-04-02T17:22:17.509Z,98320.19
2023-04-02T17:24:57.118Z,98327.78
2023-04-02T17:27:34.329Z,98332.09
2023-04-02T17:30:08.806Z,98330.34
2023-04-02T17:32:39.378Z,98344.78
2023-04-02T17:35:21.793Z,98347.78
2023-04-02T17:38:02.578Z,98365.06
2023-04-02T17:40:42.395Z,98360.31
2023-04-02T17:43:22.827Z,98377.28
2023-04-02T17:45:55.925Z,98379.03
2023-04-02T17:48:34.445Z,98377.59
2023-04-02T17:51:17.849Z,98386.44
2023-04-02T17:54:02.382Z,98396.25
2023-04-02T17:56:55.512Z,98399.72
2023-04-02T17:59:50.631Z,98408.25
2023-04-02T18:02:36.487Z,98423.59
2023-04-02T18:05:19.649Z,98418.81
2023-04-02T18:07:59.780Z,98421.19
2023-04-02T18:10:42.429Z,98429.28
2023-04-02T18:13:26.978Z,98434.63
2023-04-02T18:16:21.681Z,98433.22
2023-04-02T18:19:09.934Z,98439.38
2023-04-02T18:21:46.609Z,98447.13
2023-04-02T18:24:30.902Z,98445.34
2023-04-02T18:27:20.404Z,98454.19
2023-04-02T18:29:58.340Z,98459.22
2023-04-02T18:32:56.938Z,98471.19
2023-04-02T18:35:51.660Z,98475.94
2023-04-02T18:39:00.250Z,98476.78
2023-04-02T18:41:45.560Z,98485.59
2023-04-02T18:44:36.512Z,98500.72
2023-04-02T18:47:15.391Z,98509.19
2023-04-02T18:49:52.936Z,98508.94
2023-04-02T18:52:24.669Z,98529.28
2023-04-02T18:55:00.674Z,98517.09
2023-04-02T18:57:36.294Z,98538.97
2023-04-02T19:00:24.379Z,98539.91
2023-04-02T19:03:00.675Z,98537.97
2023-04-02T19:05:40.727Z,98545.25
2023-04-02T19:08:17.460Z,98547.44
2023-04-02T19:10:48.969Z,98555.94
2023-04-02T19:13:21.863Z,98573.56
2023-04-02T19:16:43.454Z,98581.34
2023-04-02T19:19:20.977Z,98574.69
2023-04-02T19:22:17.304Z,98573.66
2023-04-02T19:25:17.901Z,98586.91
2023-04-02T19:28:00.201Z,98588.75
2023-04-02T19:30:42.087Z,98592.06
2023-04-02T19:33:30.247Z,98606.13
2023-04-02T19:36:06.989Z,98607.72
2023-04-02T19:38:52.489Z,98614.81
2023-04-02T19:41:32.519Z,98617.88
2023-04-02T19:44:02.921Z,98636.22
2023-04-02T19:46:33.625Z,98645.28
2023-04-02T19:49:12.087Z,98635.19
2023-04-02T19:51:42.452Z,98640.50
2023-04-02T19:54:13.362Z,98643.31
2023-04-02T19:56:43.868Z,98643.19
2023-04-02T19:59:18.052Z,98638.53
2023-04-02T20:01:49.886Z,98658.97
2023-04-02T20:04:25.198Z,98651.16
2023-04-02T20:06:55.624Z,98659.91
2023-04-02T20:09:25.659Z,98667.53
2023-04-02T20:11:57.403Z,98661.31
2023-04-02T20:14:29.730Z,98666.22
2023-04-02T20:16:59.808Z,98666.19
2023-04-02T20:19:33.098Z,98667.25
2023-04-02T20:22:03.142Z,98674.88
2023-04-02T20:24:33.278Z,98684.94
2023-04-02T20:27:03.460Z,98684.69
2023-04-02T20:29:34.002Z,98686.84
2023-04-02T20:32:04.396Z,98686.00
2023-04-02T20:34:37.246Z,98696.91
2023-04-02T20:37:08.260Z,98699.81
2023-04-02T20:39:38.995Z,98695.44
2023-04-02T20:42:09.428Z,98696.78
2023-04-02T20:44:39.464Z,98701.69
2023-04-02T20:47:09.593Z,98701.81
2023-04-02T20:49:42.149Z,98715.25
2023-04-02T20:52:12.738Z,98714.97
2023-04-02T20:54:43.007Z,98717.63
2023-04-02T20:57:13.938Z,98719.50
2023-04-02T20:59:44.174Z,98719.22
2023-04-02T21:02:15.291Z,98720.00
2023-04-02T21:04:48.055Z,98726.91
2023-04-02T21:07:19.229Z,98727.59
2023-04-02T21:09:49.564Z,98716.53
2023-04-02T21:12:20.343Z,98731.50
2023-04-02T21:14:55.775Z,98733.81
2023-04-02T21:17:26.105Z,98736.47
2023-04-02T21:19:58.908Z,98733.81
2023-04-02T21:22:29.220Z,98744.72
2023-04-02T21:24:59.313Z,98743.25
2023-04-02T21:27:29.628Z,98741.66
2023-04-02T21:29:59.625Z,98745.25
2023-04-02T21:32:30.264Z,98750.56
2023-04-02T21:35:03.167Z,98746.56
2023-04-02T21:37:33.166Z,98747.50
2023-04-02T21:40:04.174Z,98755.31
2023-04-02T21:42:34.172Z,98754.81
2023-04-02T21:45:04.699Z,98757.47
2023-04-02T21:47:34.695Z,98752.53
2023-04-02T21:50:08.738Z,98755.59
2023-04-02T21:52:38.739Z,98750.81
2023-04-02T21:55:09.707Z,98758.38
2023-04-02T21:57:40.054Z,98754.13
2023-04-02T22:00:12.892Z,98759.56
2023-04-02T22:02:45.493Z,98759.84
2023-04-02T22:05:18.409Z,98768.34
2023-04-02T22:07:49.141Z,98773.94
2023-04-02T22:10:19.202Z,98772.06
2023-04-02T22:12:52.167Z,98772.88
2023-04-02T22:15:22.119Z,98774.72
2023-04-02T22:17:52.171Z,98778.56
2023-04-02T22:20:25.980Z,98779.97
2023-04-02T22:22:56.769Z,98780.63
2023-04-02T22:25:26.826Z,98781.03
2023-04-02T22:27:58.636Z,98785.59
2023-04-02T22:30:30.465Z,98783.66
2023-04-02T22:33:01.203Z,98789.75
2023-04-02T22:35:34.749Z,98798.00
2023-04-02T22:38:04.771Z,98791.13
2023-04-02T22:40:36.363Z,98786.88
2023-04-02T22:43:07.221Z,98796.94
2023-04-02T22:45:37.442Z,98785.41
2023-04-02T22:48:07.651Z,98793.66
2023-04-02T22:50:40.434Z,98788.06
2023-04-02T22:53:12.112Z,98790.84
2023-04-02T22:55:42.288Z,98794.97
2023-04-02T22:58:12.675Z,98792.91
2023-04-02T23:00:44.100Z,98797.25
2023-04-02T23:03:14.373Z,98796.53
2023-04-02T23:06:00.325Z,98799.25
2023-04-02T23:08:30.305Z,98794.06
2023-04-02T23:11:04.963Z,98797.75
2023-04-02T23:13:36.109Z,98789.75
2023-04-02T23:16:08.630Z,98784.41
2023-04-02T23:18:40.706Z,98786.66
2023-04-02T23:21:13.527Z,98789.69
2023-04-02T23:23:43.808Z,98795.03
2023-04-02T23:26:16.310Z,98796.09
2023-04-02T23:28:46.942Z,98790.63
2023-04-02T23:31:19.351Z,98790.72
2023-04-02T23:33:50.209Z,98792.03
2023-04-02T23:36:26.430Z,98791.72
2023-04-02T23:38:57.768Z,98787.84
2023-04-02T23:41:29.425Z,98780.44
2023-04-02T23:44:00.483Z,98787.56
2023-04-02T23:46:31.853Z,98789.66
2023-04-02T23:49:03.115Z,98782.72
2023-04-02T23:51:36.670Z,98785.84
2023-04-02T23:54:07.032Z,98783.72
2023-04-02T23:56:37.045Z,98780.56
2023-04-02T23:59:07.460Z,98787.06
